Time;durP1;ratioP1;P1;durP2;ratioP2;P2;SDS_P1;SDS_P2;PMS_P1;PMS_P2;Temp;Humidity;BMP_temperature;BMP_pressure;BME280_temperature;BME280_humidity;BME280_pressure;Samples;Min_cycle;Max_cycle;Signal;HPM_P1;HPM_P2
2022/10/31 00:00:19;;;;;;;7.93;4.50;;;16.10;61.50;;;16.33;47.65;95418.75;5043450;28;20503;-55
2022/10/31 00:02:46;;;;;;;9.03;4.30;;;16.00;61.50;;;16.29;47.70;95413.75;5046579;28;20844;-54
2022/10/31 00:05:13;;;;;;;6.40;4.20;;;16.00;61.90;;;16.27;47.82;95421.06;5045711;28;20964;-56
2022/10/31 00:07:41;;;;;;;9.23;4.30;;;16.00;62.10;;;16.24;47.97;95417.91;5044749;28;21272;-56
2022/10/31 00:24:35;;;;;;;5.20;4.13;;;15.90;61.60;;;16.13;49.19;95405.75;5047939;28;20601;-55
2022/10/31 00:27:02;;;;;;;9.23;4.87;;;15.80;63.80;;;16.10;49.12;95417.53;5032267;28;20444;-56
2022/10/31 00:29:29;;;;;;;6.57;4.00;;;15.80;63.90;;;16.08;49.32;95416.88;5032431;28;20551;-55
2022/10/31 00:31:56;;;;;;;5.00;4.17;;;15.80;64.00;;;16.06;49.04;95410.88;5029345;28;20460;-53
2022/10/31 00:34:24;;;;;;;7.13;4.87;;;15.70;64.00;;;16.04;49.14;95412.84;5034125;28;21038;-55
2022/10/31 00:36:51;;;;;;;10.23;4.70;;;15.70;64.20;;;16.03;49.21;95407.72;5033264;28;20445;-55
2022/10/31 00:39:18;;;;;;;11.30;5.43;;;15.70;64.10;;;16.03;49.14;95410.38;5033210;28;20843;-55
2022/10/31 00:41:47;;;;;;;6.60;4.37;;;15.70;64.00;;;16.02;49.18;95409.53;5033466;28;21000;-55
2022/10/31 00:44:14;;;;;;;9.70;4.00;;;15.70;64.10;;;16.02;49.15;95404.22;5031541;28;20474;-55
2022/10/31 00:46:41;;;;;;;9.57;4.10;;;15.70;64.80;;;16.02;49.08;95406.88;5033623;28;20770;-55
2022/10/31 00:49:09;;;;;;;8.00;4.20;;;15.70;64.10;;;16.03;49.15;95395.25;5035184;28;20477;-57
2022/10/31 00:51:37;;;;;;;5.37;3.73;;;15.70;64.20;;;16.04;48.94;95394.28;5035243;28;20525;-55
2022/10/31 00:54:04;;;;;;;7.40;4.33;;;15.70;64.20;;;16.07;49.14;95401.09;5030766;28;21056;-56
2022/10/31 00:56:31;;;;;;;11.10;4.60;;;15.80;64.30;;;16.08;49.05;95398.28;5031122;28;20453;-55
2022/10/31 00:59:00;;;;;;;5.70;3.80;;;15.80;64.30;;;16.09;49.29;95399.94;5030160;28;21019;-57
2022/10/31 01:01:27;;;;;;;5.03;4.53;;;15.80;64.40;;;16.07;49.09;95399.28;5032861;28;20457;-55
2022/10/31 01:03:55;;;;;;;8.77;4.27;;;15.80;64.20;;;16.07;48.86;95407.22;5033746;28;20468;-55
2022/10/31 01:06:22;;;;;;;6.80;4.30;;;15.80;64.00;;;16.07;48.99;95409.06;5033522;28;20443;-55
2022/10/31 01:08:49;;;;;;;7.57;3.73;;;15.80;64.10;;;16.07;49.00;95407.22;5034046;28;20907;-56
2022/10/31 01:11:18;;;;;;;7.27;4.43;;;15.80;64.00;;;16.08;48.98;95406.25;5032221;28;20632;-56
2022/10/31 01:13:46;;;;;;;3.90;3.53;;;15.80;64.30;;;16.08;48.97;95408.91;5028806;28;20484;-57
2022/10/31 01:16:16;;;;;;;5.03;4.30;;;15.80;64.40;;;16.08;49.14;95408.91;5028206;28;20840;-55
2022/10/31 01:18:43;;;;;;;6.90;4.50;;;15.80;64.40;;;16.09;49.16;95412.38;5031658;28;20500;-57
2022/10/31 01:21:12;;;;;;;6.30;4.50;;;15.80;64.60;;;16.10;49.36;95419.34;5031794;28;20448;-53
2022/10/31 01:23:40;;;;;;;4.90;4.50;;;15.80;65.10;;;16.10;49.67;95417.53;5025195;28;21086;-54
2022/10/31 01:26:09;;;;;;;6.13;5.37;;;15.80;65.20;;;16.11;49.58;95413.88;5018425;28;20458;-57
2022/10/31 01:28:38;;;;;;;8.40;5.10;;;15.80;65.10;;;16.12;49.56;95412.06;5017151;28;20974;-53
2022/10/31 01:31:07;;;;;;;5.90;4.70;;;15.80;65.30;;;16.13;50.13;95416.38;5019808;28;20480;-53
2022/10/31 01:33:35;;;;;;;6.10;4.53;;;15.80;65.90;;;16.13;49.67;95411.06;5017025;28;20550;-57
2022/10/31 01:36:03;;;;;;;7.97;6.10;;;15.80;65.60;;;16.14;49.91;95418.03;5021032;28;20946;-62
2022/10/31 01:38:30;;;;;;;10.73;5.20;;;15.80;66.00;;;16.15;49.90;95411.72;5019610;28;20472;-56
2022/10/31 01:40:57;;;;;;;11.80;5.27;;;15.80;66.10;;;16.17;49.95;95408.91;5016484;28;20463;-55
2022/10/31 01:43:25;;;;;;;8.47;5.43;;;15.80;66.20;;;16.18;50.12;95414.06;5017206;28;20532;-55
2022/10/31 01:45:54;;;;;;;9.40;5.30;;;15.90;66.30;;;16.20;49.66;95416.56;5020338;28;20535;-56
2022/10/31 01:48:24;;;;;;;8.03;5.07;;;15.90;66.40;;;16.23;50.23;95417.06;5012740;28;20939;-54
2022/10/31 01:50:53;;;;;;;14.07;6.60;;;15.90;66.50;;;16.24;49.99;95412.59;5012304;28;20449;-55
2022/10/31 01:53:20;;;;;;;8.77;5.40;;;15.90;66.30;;;16.25;50.12;95414.25;5015528;28;20508;-55
2022/10/31 01:55:47;;;;;;;6.57;4.50;;;15.90;66.50;;;16.25;50.21;95412.44;5012694;28;20468;-54
2022/10/31 01:58:17;;;;;;;12.90;6.63;;;15.90;66.60;;;16.26;50.41;95427.34;5013111;28;20477;-55
2022/10/31 02:00:46;;;;;;;14.80;5.50;;;16.00;67.70;;;16.28;50.22;95424.53;5015768;28;20456;-55
2022/10/31 02:03:13;;;;;;;8.03;5.40;;;16.00;67.10;;;16.29;50.41;95426.22;5015730;28;20480;-56
2022/10/31 02:05:40;;;;;;;12.90;5.90;;;16.00;67.20;;;16.31;50.45;95424.22;5014562;28;20522;-56
2022/10/31 02:08:12;;;;;;;8.27;5.33;;;16.00;67.10;;;16.31;50.45;95419.75;5013141;28;20473;-55
2022/10/31 02:10:39;;;;;;;9.40;5.40;;;16.00;67.20;;;16.34;50.39;95423.88;5013920;28;20519;-56
2022/10/31 02:13:08;;;;;;;11.87;6.00;;;16.00;67.40;;;16.35;50.56;95414.94;5012040;28;20566;-56
2022/10/31 02:15:36;;;;;;;9.30;5.57;;;16.00;67.50;;;16.37;50.32;95412.94;5009605;28;20454;-56
2022/10/31 02:18:03;;;;;;;7.70;5.63;;;16.00;67.50;;;16.40;50.60;95417.13;5019788;28;20486;-54
2022/10/31 02:20:33;;;;;;;7.30;5.10;;;16.00;67.30;;;16.41;50.16;95422.25;5016059;28;20454;-56
2022/10/31 02:23:40;;;;;;;9.53;6.00;;;16.10;67.50;;;16.44;50.87;95421.13;5021705;28;20512;-55
2022/10/31 02:26:53;;;;;;;9.53;6.20;;;16.10;67.90;;;16.43;50.81;95422.09;5012718;28;20826;-55
2022/10/31 02:29:55;;;;;;;10.73;5.10;;;16.10;67.90;;;16.43;50.97;95427.41;4970810;28;20506;-54
2022/10/31 02:32:27;;;;;;;12.87;5.93;;;16.10;67.90;;;16.42;50.35;95423.09;5015483;28;20455;-55
2022/10/31 02:34:59;;;;;;;7.47;5.60;;;16.10;67.60;;;16.42;50.56;95433.69;5012471;28;20445;-56
2022/10/31 02:37:30;;;;;;;9.77;5.23;;;16.10;67.70;;;16.42;50.63;95428.41;5017148;28;20477;-55
2022/10/31 02:40:02;;;;;;;6.77;5.40;;;16.10;68.00;;;16.41;50.65;95440.84;5013223;28;20450;-55
2022/10/31 02:42:34;;;;;;;9.93;5.33;;;16.10;68.30;;;16.41;50.82;95434.72;5018416;28;20547;-55
2022/10/31 02:45:06;;;;;;;11.77;5.83;;;16.10;68.50;;;16.39;50.90;95432.22;5013050;28;20649;-57
2022/10/31 02:47:36;;;;;;;8.20;5.47;;;16.10;68.30;;;16.38;51.07;95440.34;5017054;28;20568;-55
2022/10/31 02:50:07;;;;;;;8.43;5.37;;;16.10;69.20;;;16.35;51.54;95438.84;5014403;28;20454;-55
2022/10/31 02:52:35;;;;;;;7.13;6.10;;;16.10;69.20;;;16.32;51.55;95447.13;5017506;28;21027;-56
2022/10/31 02:55:12;;;;;;;9.40;5.53;;;16.00;69.50;;;16.27;51.46;95446.78;5017758;28;20465;-55
2022/10/31 02:57:39;;;;;;;9.70;5.57;;;16.00;69.00;;;16.24;51.28;95439.16;5014971;28;20473;-54
2022/10/31 03:00:09;;;;;;;11.67;6.20;;;15.90;68.90;;;16.21;51.33;95444.78;5017290;28;20461;-55
2022/10/31 03:02:53;;;;;;;6.97;5.53;;;15.90;69.00;;;16.19;52.03;95447.59;5015661;28;20548;-54
2022/10/31 03:05:29;;;;;;;8.67;4.70;;;15.90;69.60;;;16.17;51.65;95449.53;5014262;28;20981;-56
2022/10/31 03:08:01;;;;;;;12.57;6.00;;;15.90;69.80;;;16.12;51.57;95452.69;5018176;28;20789;-55
2022/10/31 03:10:36;;;;;;;12.57;7.03;;;15.80;70.10;;;16.09;51.75;95453.00;5016363;28;20484;-55
2022/10/31 03:13:07;;;;;;;13.40;5.80;;;15.80;70.00;;;16.05;51.82;95445.53;5012525;28;20923;-54
2022/10/31 03:15:36;;;;;;;18.13;7.30;;;15.80;70.30;;;16.01;51.53;95457.47;5013008;28;20445;-55
2022/10/31 03:18:08;;;;;;;6.50;5.13;;;15.70;70.40;;;15.97;51.62;95453.44;5015075;28;20504;-56
2022/10/31 03:20:38;;;;;;;8.70;6.47;;;15.70;70.60;;;15.90;52.07;95463.88;5018730;28;20453;-55
2022/10/31 03:23:06;;;;;;;15.23;6.57;;;15.60;70.70;;;15.86;52.17;95459.88;5018472;28;20487;-56
2022/10/31 03:25:33;;;;;;;17.13;6.77;;;15.60;70.80;;;15.81;52.31;95460.34;5015754;28;20468;-55
2022/10/31 03:28:01;;;;;;;18.13;6.63;;;15.50;71.40;;;15.75;52.67;95467.09;5018606;28;20531;-55
2022/10/31 03:30:28;;;;;;;13.23;6.30;;;15.50;71.50;;;15.70;52.27;95468.53;5018030;28;20457;-58
2022/10/31 03:32:56;;;;;;;10.23;6.73;;;15.40;71.50;;;15.64;52.58;95469.16;5014121;28;20992;-57
2022/10/31 03:35:25;;;;;;;7.73;6.40;;;15.40;71.80;;;15.56;52.62;95470.75;5016983;28;20506;-55
2022/10/31 03:37:53;;;;;;;12.30;7.23;;;15.30;71.90;;;15.50;52.74;95467.91;5015709;28;20477;-55
2022/10/31 03:40:22;;;;;;;9.53;5.93;;;15.20;72.10;;;15.40;52.90;95468.84;5015318;28;20524;-56
2022/10/31 03:42:54;;;;;;;11.17;6.60;;;15.20;72.30;;;15.35;52.95;95476.44;5017481;28;20473;-56
2022/10/31 03:45:24;;;;;;;13.50;8.07;;;15.10;72.60;;;15.27;53.23;95472.88;5013006;28;20518;-54
2022/10/31 03:47:51;;;;;;;9.43;6.70;;;15.00;72.90;;;15.22;52.99;95478.63;5015913;28;20478;-56
2022/10/31 03:50:19;;;;;;;12.00;6.87;;;15.00;72.90;;;15.17;53.37;95473.81;5016825;28;20460;-56
2022/10/31 03:52:50;;;;;;;12.73;7.13;;;14.90;73.10;;;15.12;53.50;95476.09;5016041;28;20480;-56
2022/10/31 03:55:20;;;;;;;14.57;7.13;;;14.90;73.40;;;15.08;53.67;95484.50;5016880;28;20446;-54
2022/10/31 03:57:52;;;;;;;17.30;7.40;;;14.80;73.80;;;15.01;53.50;95486.91;5017235;28;20482;-56
2022/10/31 04:00:19;;;;;;;14.23;7.97;;;14.80;74.20;;;14.96;53.61;95490.00;5017435;28;20459;-55
2022/10/31 04:02:51;;;;;;;16.27;7.97;;;14.70;74.20;;;14.90;53.86;95487.13;5014858;28;20481;-56
2022/10/31 04:05:18;;;;;;;20.60;7.67;;;14.60;74.20;;;14.83;53.76;95487.72;5017411;28;20436;-54
2022/10/31 04:07:48;;;;;;;16.50;7.70;;;14.60;74.60;;;14.79;53.74;95485.53;5016660;28;20480;-58
2022/10/31 04:10:16;;;;;;;11.97;8.30;;;14.60;74.90;;;14.75;54.10;95494.75;5016010;28;20453;-55
2022/10/31 04:12:44;;;;;;;18.20;8.40;;;14.50;75.30;;;14.69;53.94;95489.09;5011547;28;20597;-54
2022/10/31 04:15:11;;;;;;;9.67;7.90;;;14.50;75.40;;;14.66;54.53;95493.84;5004545;28;20486;-54
2022/10/31 04:17:41;;;;;;;8.67;7.00;;;14.40;76.00;;;14.64;54.48;95493.16;5015815;28;21108;-57
2022/10/31 04:20:09;;;;;;;15.30;8.83;;;14.40;76.20;;;14.61;54.35;95491.66;5016008;28;20503;-57
2022/10/31 04:22:36;;;;;;;12.47;8.77;;;14.40;76.40;;;14.58;54.50;95499.88;5015801;28;21003;-55
2022/10/31 04:25:07;;;;;;;17.70;9.33;;;14.40;77.00;;;14.57;54.53;95495.53;5016289;28;20458;-56
2022/10/31 04:27:34;;;;;;;12.57;8.70;;;14.30;77.00;;;14.57;54.63;95487.59;5017182;28;20586;-56
2022/10/31 04:30:01;;;;;;;17.57;8.67;;;14.30;77.50;;;14.57;55.01;95500.84;5016148;28;20865;-55
2022/10/31 04:32:29;;;;;;;13.90;8.43;;;14.30;77.80;;;14.58;55.02;95502.50;5016608;28;20864;-58
2022/10/31 04:34:56;;;;;;;13.77;9.60;;;14.30;78.20;;;14.59;54.70;95500.69;5017149;28;20539;-55
2022/10/31 04:37:23;;;;;;;15.10;7.97;;;14.30;78.10;;;14.59;54.86;95498.88;5014862;28;20828;-57
2022/10/31 04:39:50;;;;;;;14.67;8.57;;;14.30;78.40;;;14.59;55.16;95496.22;5014645;28;20462;-57
2022/10/31 04:42:19;;;;;;;15.73;8.90;;;14.40;79.10;;;14.59;55.28;95501.50;5016140;28;20507;-55
2022/10/31 04:44:46;;;;;;;16.27;8.93;;;14.30;79.00;;;14.59;54.94;95496.22;5014961;28;20980;-55
2022/10/31 04:47:13;;;;;;;16.47;8.13;;;14.30;78.90;;;14.56;55.61;95499.16;5015060;28;20450;-56
2022/10/31 04:49:41;;;;;;;12.40;8.07;;;14.30;79.80;;;14.57;55.45;95503.50;5009581;28;20449;-57
2022/10/31 04:52:08;;;;;;;19.23;8.40;;;14.30;79.90;;;14.55;55.57;95500.16;5016107;28;21005;-56
2022/10/31 04:54:35;;;;;;;28.97;9.30;;;14.30;79.80;;;14.54;55.34;95509.06;5013914;28;20588;-55
2022/10/31 04:57:02;;;;;;;15.40;8.40;;;14.30;80.10;;;14.53;54.97;95515.34;5011729;28;20461;-54
2022/10/31 04:59:31;;;;;;;17.20;8.43;;;14.30;80.00;;;14.52;55.44;95517.16;5017483;28;20501;-55
2022/10/31 05:01:58;;;;;;;16.33;8.93;;;14.30;80.10;;;14.50;55.26;95515.63;5019088;28;20503;-54
2022/10/31 05:04:26;;;;;;;19.67;8.80;;;14.20;80.00;;;14.48;55.57;95514.97;5018363;28;20485;-57
2022/10/31 05:06:53;;;;;;;15.97;9.17;;;14.20;80.90;;;14.47;55.45;95519.44;5020194;28;20484;-55
2022/10/31 05:09:20;;;;;;;13.20;9.17;;;14.20;80.40;;;14.45;55.57;95518.75;5020262;28;20996;-54
2022/10/31 05:11:47;;;;;;;12.07;8.93;;;14.20;80.80;;;14.45;55.27;95523.19;5016786;28;20452;-57
2022/10/31 05:14:15;;;;;;;20.93;9.30;;;14.20;80.70;;;14.43;55.80;95533.94;5017747;28;20489;-56
2022/10/31 05:16:43;;;;;;;23.20;9.50;;;14.20;81.30;;;14.41;55.70;95532.44;5015951;28;20548;-55
2022/10/31 05:19:11;;;;;;;15.33;9.57;;;14.20;81.50;;;14.39;55.61;95534.38;5018685;28;20469;-54
2022/10/31 05:21:38;;;;;;;23.97;9.70;;;14.10;81.50;;;14.37;55.61;95531.06;5020367;28;20557;-55
2022/10/31 05:24:06;;;;;;;12.10;8.83;;;14.10;81.90;;;14.34;56.06;95532.16;5020174;28;20484;-56
2022/10/31 05:26:33;;;;;;;21.00;9.97;;;14.10;82.50;;;14.31;55.89;95535.09;5015597;28;20453;-56
2022/10/31 05:29:01;;;;;;;16.90;9.40;;;14.10;82.20;;;14.27;56.00;95545.16;5018689;28;20477;-55
2022/10/31 05:31:28;;;;;;;19.37;9.90;;;14.00;82.40;;;14.24;56.24;95536.69;5016908;28;20560;-55
2022/10/31 05:33:56;;;;;;;23.13;11.63;;;14.00;82.80;;;14.21;56.43;95537.81;5017180;28;20871;-55
2022/10/31 05:36:24;;;;;;;21.33;12.30;;;14.00;83.20;;;14.18;56.18;95538.09;5018429;28;21001;-56
2022/10/31 05:38:51;;;;;;;23.77;12.57;;;13.90;83.30;;;14.16;56.45;95542.72;5018124;28;20484;-55
2022/10/31 05:41:18;;;;;;;32.90;10.77;;;13.90;83.60;;;14.12;56.43;95549.25;5017629;28;20453;-56
2022/10/31 05:43:46;;;;;;;22.20;10.40;;;13.90;84.10;;;14.16;56.48;95556.75;5019891;28;20476;-56
2022/10/31 05:46:13;;;;;;;21.00;11.97;;;13.90;84.20;;;14.27;56.51;95553.09;5018497;28;20464;-56
2022/10/31 05:48:41;;;;;;;37.37;11.17;;;14.00;84.90;;;14.48;56.46;95552.88;5016712;28;20579;-57
2022/10/31 05:51:09;;;;;;;30.73;11.63;;;14.10;84.90;;;14.82;55.68;95548.81;5017967;28;20500;-55
2022/10/31 05:53:37;;;;;;;41.77;10.70;;;14.40;84.10;;;15.18;55.00;95544.38;5019163;28;20477;-56
2022/10/31 05:56:04;;;;;;;38.77;12.00;;;14.70;83.60;;;15.60;54.51;95559.63;5017788;28;20456;-55
2022/10/31 05:58:32;;;;;;;22.70;10.67;;;15.10;82.70;;;16.03;53.67;95566.91;5018148;28;21024;-54
2022/10/31 06:00:59;;;;;;;24.63;10.57;;;15.50;81.50;;;16.45;52.78;95567.00;5016528;28;21053;-56
2022/10/31 06:03:26;;;;;;;25.30;13.00;;;15.90;80.10;;;16.85;52.02;95560.16;5019294;28;20506;-54
2022/10/31 06:05:53;;;;;;;31.10;13.90;;;16.30;78.10;;;17.28;50.92;95565.44;5016570;28;20844;-55
2022/10/31 06:08:22;;;;;;;27.93;10.50;;;16.70;76.40;;;17.69;50.40;95572.59;5012077;28;20481;-56
2022/10/31 06:10:49;;;;;;;19.70;10.00;;;17.10;75.40;;;18.12;49.82;95567.94;5017428;28;20456;-53
2022/10/31 06:13:16;;;;;;;31.23;11.50;;;17.50;73.70;;;18.55;48.96;95576.47;5019291;28;20526;-54
2022/10/31 06:15:44;;;;;;;38.43;11.23;;;17.90;72.40;;;18.95;48.02;95579.19;5006063;28;20493;-56
2022/10/31 06:18:11;;;;;;;31.00;10.83;;;18.30;71.30;;;19.36;47.33;95581.59;5018718;28;20588;-55
2022/10/31 06:20:38;;;;;;;26.10;9.87;;;18.70;69.60;;;19.80;46.82;95580.97;5016025;28;20472;-56
2022/10/31 06:23:06;;;;;;;18.37;9.33;;;19.10;68.30;;;20.24;46.20;95584.75;5017837;28;20500;-57
2022/10/31 06:25:34;;;;;;;16.37;8.43;;;19.50;66.80;;;20.69;45.43;95590.16;5018389;28;20458;-57
2022/10/31 06:28:02;;;;;;;15.20;9.20;;;20.00;65.90;;;21.12;44.81;95583.06;5018240;28;20496;-56
2022/10/31 06:30:29;;;;;;;17.97;9.40;;;20.40;64.90;;;21.58;43.94;95597.19;5016455;28;21021;-56
2022/10/31 06:33:03;;;;;;;17.70;9.03;;;20.90;63.40;;;22.01;43.38;95584.63;5019039;28;20479;-57
2022/10/31 06:35:30;;;;;;;20.40;9.00;;;21.40;62.40;;;22.46;42.96;95595.06;5014558;28;20481;-56
2022/10/31 06:37:57;;;;;;;23.27;10.23;;;21.80;61.40;;;22.91;41.85;95598.22;5015265;28;20477;-55
2022/10/31 06:40:24;;;;;;;18.80;9.90;;;22.30;59.90;;;23.36;41.46;95594.28;5017766;28;21027;-56
2022/10/31 06:42:59;;;;;;;16.20;10.10;;;22.70;59.60;;;23.81;40.85;95602.63;5012745;28;20847;-55
2022/10/31 06:45:26;;;;;;;16.80;10.00;;;23.10;58.50;;;24.21;40.75;95601.88;5018596;28;20540;-58
2022/10/31 06:47:54;;;;;;;21.07;11.10;;;23.50;58.10;;;24.56;39.27;95598.97;5023979;28;20992;-54
2022/10/31 06:50:21;;;;;;;28.83;11.20;;;23.90;56.10;;;24.87;38.89;95606.38;5016986;28;20464;-56
2022/10/31 06:52:52;;;;;;;19.80;9.83;;;24.10;56.10;;;25.24;39.03;95606.66;5017304;28;20881;-58
2022/10/31 06:55:22;;;;;;;13.80;10.73;;;24.50;55.50;;;25.63;38.30;95599.44;5011903;28;20480;-55
2022/10/31 06:57:52;;;;;;;11.47;9.03;;;24.90;55.50;;;26.06;37.64;95593.38;5016149;28;20973;-54
2022/10/31 07:00:21;;;;;;;16.30;10.40;;;25.30;54.20;;;26.52;37.26;95607.50;5012803;28;20475;-56
2022/10/31 07:02:56;;;;;;;19.57;10.70;;;25.80;53.70;;;26.94;36.28;95604.19;5019146;28;20473;-55
2022/10/31 07:05:23;;;;;;;18.07;9.53;;;26.30;52.50;;;27.36;35.63;95607.09;5016394;28;20462;-56
2022/10/31 07:07:54;;;;;;;15.33;11.63;;;26.70;51.60;;;27.79;35.24;95605.25;5016122;28;20483;-55
2022/10/31 07:10:21;;;;;;;14.33;9.67;;;27.20;50.20;;;28.17;34.52;95606.81;5017206;28;20534;-59
2022/10/31 07:12:49;;;;;;;11.13;9.90;;;27.70;49.90;;;28.49;33.87;95607.31;5017195;28;20468;-55
2022/10/31 07:15:16;;;;;;;17.47;11.23;;;28.10;48.90;;;28.83;34.02;95604.88;5011727;28;20512;-56
2022/10/31 07:17:45;;;;;;;20.60;11.20;;;28.50;48.20;;;29.18;33.72;95608.56;5014836;28;20480;-56
2022/10/31 07:20:12;;;;;;;13.30;10.27;;;29.00;48.30;;;29.50;32.93;95608.97;5014964;28;20460;-55
2022/10/31 07:22:39;;;;;;;15.30;11.10;;;29.40;46.60;;;29.84;32.75;95604.50;5018693;28;20481;-59
2022/10/31 07:25:07;;;;;;;16.20;11.77;;;29.80;46.10;;;30.10;31.87;95602.25;5017583;28;20457;-55
2022/10/31 07:27:37;;;;;;;21.83;11.00;;;30.10;45.20;;;30.31;31.24;95586.31;5015917;28;20490;-56
2022/10/31 07:30:06;;;;;;;23.83;12.20;;;30.40;44.70;;;30.47;31.48;95585.47;5016279;28;21006;-54
2022/10/31 07:32:40;;;;;;;22.20;12.97;;;30.60;44.30;;;30.64;30.56;95588.19;5010092;28;20876;-56
2022/10/31 07:35:09;;;;;;;17.40;12.27;;;30.70;43.70;;;30.75;31.03;95581.84;5014715;28;20508;-54
2022/10/31 07:37:36;;;;;;;26.40;12.80;;;30.80;43.30;;;30.86;30.82;95584.69;5011634;28;20848;-57
2022/10/31 07:40:04;;;;;;;21.43;11.67;;;30.80;42.90;;;30.94;30.28;95589.72;5017365;28;20461;-55
2022/10/31 07:42:35;;;;;;;22.63;12.70;;;30.70;42.70;;;31.04;29.80;95589.84;5017525;28;20471;-55
2022/10/31 07:45:03;;;;;;;24.83;11.70;;;30.70;42.60;;;31.15;29.86;95590.00;5012439;28;20457;-58
2022/10/31 07:47:30;;;;;;;28.43;12.70;;;30.70;42.40;;;31.24;29.51;95583.84;5017775;28;20476;-58
2022/10/31 07:49:57;;;;;;;25.93;12.10;;;30.80;42.30;;;31.34;30.05;95580.47;5016799;28;20605;-56
2022/10/31 07:52:26;;;;;;;21.33;12.17;;;30.90;41.90;;;31.41;29.51;95583.78;5016922;28;20518;-57
2022/10/31 07:54:53;;;;;;;25.37;12.70;;;30.90;41.60;;;31.48;29.10;95583.63;5016291;28;20573;-55
2022/10/31 07:57:20;;;;;;;29.57;12.73;;;30.90;41.60;;;31.58;29.26;95588.38;5017649;28;20314;-53
2022/10/31 07:59:48;;;;;;;19.73;12.30;;;31.00;41.60;;;31.70;28.75;95586.31;5015968;28;21305;-55
2022/10/31 08:02:15;;;;;;;22.63;12.03;;;31.10;41.20;;;31.80;28.44;95575.53;5017179;28;20225;-56
2022/10/31 08:04:42;;;;;;;16.37;11.40;;;31.20;41.10;;;31.87;28.68;95580.78;5017146;28;20448;-57
2022/10/31 08:07:09;;;;;;;17.43;12.00;;;31.30;40.60;;;31.92;29.07;95582.72;5015106;28;20275;-56
2022/10/31 08:09:38;;;;;;;19.17;12.07;;;31.30;41.00;;;32.03;28.78;95580.94;5015581;28;20205;-56
2022/10/31 08:12:06;;;;;;;16.83;11.63;;;31.40;40.90;;;32.18;28.95;95583.81;5016680;28;20731;-57
2022/10/31 08:14:33;;;;;;;19.27;11.47;;;31.50;40.90;;;32.31;28.64;95583.34;5014695;28;20481;-57
2022/10/31 08:17:00;;;;;;;17.93;11.90;;;31.70;40.40;;;32.45;28.67;95586.47;5013589;28;20789;-57
2022/10/31 08:19:27;;;;;;;16.77;11.50;;;31.80;40.50;;;32.58;28.27;95589.81;5011906;28;20225;-57
2022/10/31 08:21:55;;;;;;;18.90;10.73;;;31.90;40.20;;;32.70;27.81;95590.47;5018478;28;20655;-56
2022/10/31 08:24:22;;;;;;;24.27;11.13;;;32.10;40.00;;;32.83;27.81;95595.47;5014845;28;20249;-56
2022/10/31 08:26:51;;;;;;;19.33;10.97;;;32.10;39.80;;;32.98;27.85;95585.75;5013797;28;20201;-58
2022/10/31 08:29:18;;;;;;;12.33;10.40;;;32.20;39.60;;;33.13;27.51;95590.47;5017414;28;20222;-57
2022/10/31 08:31:46;;;;;;;23.63;10.13;;;32.40;39.20;;;33.21;27.42;95588.06;5013792;28;20253;-58
2022/10/31 08:34:13;;;;;;;14.97;10.30;;;32.50;39.20;;;33.28;27.87;95589.72;5019101;28;20229;-56
2022/10/31 08:36:40;;;;;;;13.80;9.97;;;32.50;39.20;;;33.41;27.45;95578.31;5018695;28;20225;-57
2022/10/31 08:39:07;;;;;;;17.92;9.40;;;32.70;39.10;;;33.51;26.94;95572.91;5020192;28;20589;-55
2022/10/31 08:41:35;;;;;;;14.13;10.13;;;32.80;39.00;;;33.66;27.12;95574.84;5020367;28;20213;-55
2022/10/31 08:44:03;;;;;;;17.50;9.35;;;32.90;38.80;;;33.85;26.63;95575.22;5020932;28;20816;-55
2022/10/31 08:46:31;;;;;;;19.38;9.70;;;33.10;38.70;;;34.02;26.56;95577.69;5017894;28;20214;-58
2022/10/31 08:48:58;;;;;;;15.63;9.50;;;33.30;38.30;;;34.14;26.95;95580.13;5020617;28;20314;-55
2022/10/31 08:51:26;;;;;;;18.38;9.65;;;33.30;38.10;;;34.25;26.65;95572.81;5021116;28;20235;-56
2022/10/31 08:53:53;;;;;;;25.23;10.73;;;33.50;38.10;;;34.39;26.95;95582.06;5020585;28;20283;-56
2022/10/31 08:56:22;;;;;;;13.63;10.43;;;33.60;38.00;;;34.54;26.51;95581.25;5018167;28;20437;-54
2022/10/31 08:58:49;;;;;;;37.13;9.95;;;33.70;37.80;;;34.70;26.62;95567.56;5021186;28;20226;-55
2022/10/31 09:01:18;;;;;;;13.15;8.65;;;33.90;37.70;;;34.80;25.73;95579.34;5017651;28;20695;-56
2022/10/31 09:03:45;;;;;;;17.70;10.40;;;34.00;37.40;;;34.86;26.61;95576.59;5020149;28;20229;-56
2022/10/31 09:06:12;;;;;;;15.27;10.90;;;34.10;37.30;;;34.90;25.95;95583.94;5019444;28;20247;-57
2022/10/31 09:08:39;;;;;;;13.15;8.68;;;34.20;37.00;;;34.92;26.50;95579.06;5019613;28;20225;-55
2022/10/31 09:11:07;;;;;;;24.75;9.38;;;34.10;36.80;;;34.95;25.43;95585.84;5018445;28;20206;-55
2022/10/31 09:13:34;;;;;;;14.50;9.05;;;34.20;36.70;;;35.02;26.19;95578.19;5020863;28;20312;-56
2022/10/31 09:16:01;;;;;;;13.68;8.77;;;34.20;36.60;;;35.10;26.27;95580.34;5012118;28;20234;-57
2022/10/31 09:18:31;;;;;;;19.38;10.00;;;34.40;36.60;;;35.18;25.89;95576.22;5017298;28;20692;-54
2022/10/31 09:20:59;;;;;;;14.15;9.20;;;34.50;36.50;;;35.25;26.28;95568.53;5019693;28;20208;-59
2022/10/31 09:23:26;;;;;;;14.73;8.10;;;34.50;36.30;;;35.32;25.29;95569.09;5016424;28;20234;-57
2022/10/31 09:25:54;;;;;;;12.60;7.78;;;34.60;36.30;;;35.39;25.40;95570.72;5017596;28;20306;-55
2022/10/31 09:28:23;;;;;;;15.35;8.70;;;34.60;36.20;;;35.41;24.73;95571.25;5020003;28;20253;-57
2022/10/31 09:30:51;;;;;;;11.80;7.88;;;34.60;35.80;;;35.41;25.40;95574.78;5019533;28;20247;-55
2022/10/31 09:33:19;;;;;;;13.43;7.90;;;34.70;35.80;;;35.46;23.77;95568.47;5017441;28;20558;-56
2022/10/31 09:35:47;;;;;;;9.80;7.63;;;34.70;34.80;;;35.38;25.09;95569.06;5018086;28;20233;-55
2022/10/31 09:38:16;;;;;;;16.65;7.82;;;34.70;35.40;;;35.33;25.31;95567.97;5018266;28;20244;-55
2022/10/31 09:40:45;;;;;;;15.57;6.93;;;34.70;35.60;;;35.39;24.88;95566.06;5018255;28;20307;-57
2022/10/31 09:43:19;;;;;;;11.20;7.55;;;34.60;35.50;;;35.49;24.55;95562.44;5013296;28;20226;-55
2022/10/31 09:45:55;;;;;;;9.60;6.85;;;34.70;35.40;;;35.59;24.70;95567.88;5019123;28;20205;-56
2022/10/31 09:48:53;;;;;;;10.73;6.45;;;34.80;35.30;;;35.57;24.38;95564.56;5015193;28;20591;-56
2022/10/31 09:51:25;;;;;;;9.95;6.00;;;34.90;34.80;;;35.55;24.50;95555.84;5016233;28;20202;-58
2022/10/31 09:53:55;;;;;;;19.27;7.78;;;34.80;35.00;;;35.62;24.28;95552.78;5015307;28;20222;-56
2022/10/31 09:56:23;;;;;;;15.73;7.88;;;34.80;34.80;;;35.68;24.71;95559.84;5020046;28;20565;-55
2022/10/31 09:58:55;;;;;;;13.38;6.28;;;34.90;34.80;;;35.72;24.21;95555.47;5020747;28;20233;-56
2022/10/31 10:01:41;;;;;;;13.20;6.03;;;35.00;34.70;;;35.71;24.23;95556.56;5018737;28;20686;-55
2022/10/31 10:04:34;;;;;;;11.32;6.40;;;35.00;34.40;;;35.70;24.11;95550.28;5014575;28;20222;-56
2022/10/31 10:07:06;;;;;;;9.30;6.07;;;35.00;34.60;;;35.77;24.95;95549.16;5018091;28;20206;-54
2022/10/31 10:09:33;;;;;;;12.40;7.38;;;35.00;34.60;;;35.88;24.94;95535.13;5017085;28;20710;-56
2022/10/31 10:12:10;;;;;;;8.02;6.30;;;35.20;34.60;;;35.99;24.42;95541.38;5014776;28;20205;-57
2022/10/31 10:14:57;;;;;;;8.80;6.10;;;35.20;34.20;;;36.02;24.59;95535.31;5011277;28;20214;-58
2022/10/31 10:17:35;;;;;;;11.48;6.60;;;35.30;34.10;;;36.02;24.08;95531.75;5012942;28;20209;-55
2022/10/31 10:20:23;;;;;;;6.13;5.53;;;35.40;34.10;;;36.01;24.04;95532.84;5017379;28;20629;-57
2022/10/31 10:22:59;;;;;;;6.82;5.75;;;35.30;33.80;;;35.95;23.76;95528.53;5012963;28;20230;-55
2022/10/31 10:25:32;;;;;;;15.93;5.80;;;35.30;33.80;;;35.90;24.08;95519.22;5016425;28;20202;-57
2022/10/31 10:28:12;;;;;;;7.70;5.45;;;35.20;34.40;;;35.88;23.79;95521.44;5018890;28;20601;-56
2022/10/31 10:30:42;;;;;;;10.70;6.13;;;35.20;33.70;;;35.85;24.02;95521.19;5015296;28;20197;-56
2022/10/31 10:33:12;;;;;;;9.82;6.28;;;35.20;33.70;;;35.83;24.51;95512.44;5016629;28;20721;-57
2022/10/31 10:35:43;;;;;;;14.05;6.35;;;35.20;33.80;;;35.79;23.98;95516.84;5017247;28;20233;-56